sensor_id;sensor_type;location;lat;lon;timestamp;P1;durP1;ratioP1;P2;durP2;ratioP2
47539;SDS011;33280;52.152;21.052;2023-01-24T00:01:22;69.63;;;25.20;;
47539;SDS011;33280;52.152;21.052;2023-01-24T00:03:49;75.03;;;26.83;;
47539;SDS011;33280;52.152;21.052;2023-01-24T00:06:16;68.80;;;25.37;;
47539;SDS011;33280;52.152;21.052;2023-01-24T00:08:43;77.37;;;25.73;;
47539;SDS011;33280;52.152;21.052;2023-01-24T00:11:11;72.50;;;26.40;;
47539;SDS011;33280;52.152;21.052;2023-01-24T00:13:39;71.47;;;25.57;;
47539;SDS011;33280;52.152;21.052;2023-01-24T00:18:33;75.60;;;26.57;;
47539;SDS011;33280;52.152;21.052;2023-01-24T00:21:00;71.13;;;25.93;;
47539;SDS011;33280;52.152;21.052;2023-01-24T00:23:42;78.23;;;27.27;;
47539;SDS011;33280;52.152;21.052;2023-01-24T00:26:11;75.73;;;25.13;;
47539;SDS011;33280;52.152;21.052;2023-01-24T00:28:38;76.20;;;25.80;;
47539;SDS011;33280;52.152;21.052;2023-01-24T00:31:06;71.37;;;25.10;;
47539;SDS011;33280;52.152;21.052;2023-01-24T00:33:33;73.03;;;26.30;;
47539;SDS011;33280;52.152;21.052;2023-01-24T00:36:00;77.27;;;26.50;;
47539;SDS011;33280;52.152;21.052;2023-01-24T00:38:28;67.27;;;25.67;;
47539;SDS011;33280;52.152;21.052;2023-01-24T00:40:56;74.67;;;25.53;;
47539;SDS011;33280;52.152;21.052;2023-01-24T00:43:24;75.20;;;27.07;;
47539;SDS011;33280;52.152;21.052;2023-01-24T00:45:52;65.57;;;24.40;;
47539;SDS011;33280;52.152;21.052;2023-01-24T00:48:20;72.73;;;25.50;;
47539;SDS011;33280;52.152;21.052;2023-01-24T00:50:47;72.40;;;24.83;;
47539;SDS011;33280;52.152;21.052;2023-01-24T00:53:14;68.57;;;25.03;;
47539;SDS011;33280;52.152;21.052;2023-01-24T00:55:44;73.73;;;25.23;;
47539;SDS011;33280;52.152;21.052;2023-01-24T00:58:12;73.93;;;24.57;;
47539;SDS011;33280;52.152;21.052;2023-01-24T01:00:39;75.00;;;26.37;;
47539;SDS011;33280;52.152;21.052;2023-01-24T01:03:07;78.10;;;27.57;;
47539;SDS011;33280;52.152;21.052;2023-01-24T01:05:38;79.07;;;26.80;;
47539;SDS011;33280;52.152;21.052;2023-01-24T01:08:05;66.90;;;25.70;;
47539;SDS011;33280;52.152;21.052;2023-01-24T01:10:31;65.13;;;24.27;;
47539;SDS011;33280;52.152;21.052;2023-01-24T01:12:58;74.90;;;25.77;;
47539;SDS011;33280;52.152;21.052;2023-01-24T01:15:25;78.63;;;25.33;;
47539;SDS011;33280;52.152;21.052;2023-01-24T01:17:52;79.33;;;26.13;;
47539;SDS011;33280;52.152;21.052;2023-01-24T01:20:19;70.67;;;24.77;;
47539;SDS011;33280;52.152;21.052;2023-01-24T01:22:46;70.83;;;25.87;;
47539;SDS011;33280;52.152;21.052;2023-01-24T01:25:13;70.63;;;24.43;;
47539;SDS011;33280;52.152;21.052;2023-01-24T01:27:40;63.67;;;25.13;;
47539;SDS011;33280;52.152;21.052;2023-01-24T01:30:07;73.93;;;26.37;;
47539;SDS011;33280;52.152;21.052;2023-01-24T01:32:34;70.73;;;25.07;;
47539;SDS011;33280;52.152;21.052;2023-01-24T01:35:01;67.37;;;24.87;;
47539;SDS011;33280;52.152;21.052;2023-01-24T01:37:28;71.07;;;25.97;;
47539;SDS011;33280;52.152;21.052;2023-01-24T01:39:55;69.23;;;25.70;;
47539;SDS011;33280;52.152;21.052;2023-01-24T01:42:22;67.03;;;23.93;;
47539;SDS011;33280;52.152;21.052;2023-01-24T01:44:49;67.43;;;24.67;;
47539;SDS011;33280;52.152;21.052;2023-01-24T01:50:05;64.90;;;24.63;;
47539;SDS011;33280;52.152;21.052;2023-01-24T01:52:40;60.07;;;23.67;;
47539;SDS011;33280;52.152;21.052;2023-01-24T01:55:12;65.27;;;24.73;;
47539;SDS011;33280;52.152;21.052;2023-01-24T01:57:41;75.13;;;24.17;;
47539;SDS011;33280;52.152;21.052;2023-01-24T02:02:39;67.57;;;24.23;;
47539;SDS011;33280;52.152;21.052;2023-01-24T02:05:12;68.40;;;24.43;;
47539;SDS011;33280;52.152;21.052;2023-01-24T02:07:43;68.37;;;25.07;;
47539;SDS011;33280;52.152;21.052;2023-01-24T02:10:14;77.20;;;25.17;;
47539;SDS011;33280;52.152;21.052;2023-01-24T02:12:44;71.27;;;25.10;;
47539;SDS011;33280;52.152;21.052;2023-01-24T02:15:15;67.10;;;24.67;;
47539;SDS011;33280;52.152;21.052;2023-01-24T02:18:07;67.77;;;23.97;;
47539;SDS011;33280;52.152;21.052;2023-01-24T02:23:10;67.53;;;23.80;;
47539;SDS011;33280;52.152;21.052;2023-01-24T02:28:33;60.27;;;24.27;;
47539;SDS011;33280;52.152;21.052;2023-01-24T02:31:00;68.93;;;24.10;;
47539;SDS011;33280;52.152;21.052;2023-01-24T02:33:29;64.33;;;23.73;;
47539;SDS011;33280;52.152;21.052;2023-01-24T02:38:44;64.20;;;23.80;;
47539;SDS011;33280;52.152;21.052;2023-01-24T02:41:19;58.80;;;22.90;;
47539;SDS011;33280;52.152;21.052;2023-01-24T02:43:57;74.00;;;25.37;;
47539;SDS011;33280;52.152;21.052;2023-01-24T02:46:29;68.30;;;23.90;;
47539;SDS011;33280;52.152;21.052;2023-01-24T02:48:56;64.97;;;24.43;;
47539;SDS011;33280;52.152;21.052;2023-01-24T02:51:23;63.80;;;24.03;;
47539;SDS011;33280;52.152;21.052;2023-01-24T02:54:10;64.90;;;24.23;;
47539;SDS011;33280;52.152;21.052;2023-01-24T02:56:37;74.40;;;25.73;;
47539;SDS011;33280;52.152;21.052;2023-01-24T02:59:26;68.57;;;24.10;;
47539;SDS011;33280;52.152;21.052;2023-01-24T03:01:53;62.27;;;24.17;;
47539;SDS011;33280;52.152;21.052;2023-01-24T03:04:23;61.67;;;22.90;;
47539;SDS011;33280;52.152;21.052;2023-01-24T03:06:53;68.53;;;24.53;;
47539;SDS011;33280;52.152;21.052;2023-01-24T03:09:20;63.20;;;23.47;;
47539;SDS011;33280;52.152;21.052;2023-01-24T03:12:00;55.57;;;22.43;;
47539;SDS011;33280;52.152;21.052;2023-01-24T03:14:47;66.17;;;24.00;;
47539;SDS011;33280;52.152;21.052;2023-01-24T03:17:35;57.13;;;23.53;;
47539;SDS011;33280;52.152;21.052;2023-01-24T03:20:21;65.23;;;23.70;;
47539;SDS011;33280;52.152;21.052;2023-01-24T03:23:06;60.67;;;22.10;;
47539;SDS011;33280;52.152;21.052;2023-01-24T03:25:55;54.93;;;21.57;;
47539;SDS011;33280;52.152;21.052;2023-01-24T03:28:41;60.63;;;23.20;;
47539;SDS011;33280;52.152;21.052;2023-01-24T03:31:27;63.13;;;23.57;;
47539;SDS011;33280;52.152;21.052;2023-01-24T03:34:13;57.90;;;23.97;;
47539;SDS011;33280;52.152;21.052;2023-01-24T03:36:59;58.80;;;22.03;;
47539;SDS011;33280;52.152;21.052;2023-01-24T03:39:26;59.50;;;22.07;;
47539;SDS011;33280;52.152;21.052;2023-01-24T03:42:12;59.90;;;22.47;;
47539;SDS011;33280;52.152;21.052;2023-01-24T03:44:44;59.60;;;22.87;;
47539;SDS011;33280;52.152;21.052;2023-01-24T03:47:18;57.10;;;22.83;;
47539;SDS011;33280;52.152;21.052;2023-01-24T03:49:45;60.03;;;22.33;;
47539;SDS011;33280;52.152;21.052;2023-01-24T03:52:31;56.40;;;22.43;;
47539;SDS011;33280;52.152;21.052;2023-01-24T03:54:58;55.10;;;22.10;;
47539;SDS011;33280;52.152;21.052;2023-01-24T03:57:27;54.43;;;22.33;;
47539;SDS011;33280;52.152;21.052;2023-01-24T03:59:54;56.83;;;22.17;;
47539;SDS011;33280;52.152;21.052;2023-01-24T04:02:22;52.17;;;21.70;;
47539;SDS011;33280;52.152;21.052;2023-01-24T04:04:49;52.43;;;21.47;;
47539;SDS011;33280;52.152;21.052;2023-01-24T04:07:34;58.90;;;21.87;;
47539;SDS011;33280;52.152;21.052;2023-01-24T04:10:02;50.63;;;20.70;;
47539;SDS011;33280;52.152;21.052;2023-01-24T04:12:29;54.30;;;21.07;;
47539;SDS011;33280;52.152;21.052;2023-01-24T04:14:56;52.40;;;21.00;;
47539;SDS011;33280;52.152;21.052;2023-01-24T04:17:23;48.47;;;20.23;;
47539;SDS011;33280;52.152;21.052;2023-01-24T04:19:50;48.10;;;20.07;;
47539;SDS011;33280;52.152;21.052;2023-01-24T04:22:17;51.17;;;21.03;;
47539;SDS011;33280;52.152;21.052;2023-01-24T04:24:44;51.27;;;20.17;;
47539;SDS011;33280;52.152;21.052;2023-01-24T04:27:11;46.27;;;19.43;;
47539;SDS011;33280;52.152;21.052;2023-01-24T04:29:38;52.40;;;19.87;;
47539;SDS011;33280;52.152;21.052;2023-01-24T04:32:05;46.53;;;19.57;;
47539;SDS011;33280;52.152;21.052;2023-01-24T04:34:32;47.60;;;19.97;;
47539;SDS011;33280;52.152;21.052;2023-01-24T04:36:59;42.20;;;19.43;;
47539;SDS011;33280;52.152;21.052;2023-01-24T04:39:26;47.00;;;18.40;;
47539;SDS011;33280;52.152;21.052;2023-01-24T04:41:53;46.00;;;19.43;;
47539;SDS011;33280;52.152;21.052;2023-01-24T04:44:20;46.70;;;20.37;;
47539;SDS011;33280;52.152;21.052;2023-01-24T04:46:46;43.97;;;18.73;;
47539;SDS011;33280;52.152;21.052;2023-01-24T04:49:13;45.03;;;18.63;;
47539;SDS011;33280;52.152;21.052;2023-01-24T04:51:40;44.80;;;18.93;;
47539;SDS011;33280;52.152;21.052;2023-01-24T04:54:10;47.27;;;19.03;;
47539;SDS011;33280;52.152;21.052;2023-01-24T04:56:37;50.93;;;19.50;;
47539;SDS011;33280;52.152;21.052;2023-01-24T04:59:04;46.17;;;18.67;;
47539;SDS011;33280;52.152;21.052;2023-01-24T05:01:31;42.73;;;19.10;;
47539;SDS011;33280;52.152;21.052;2023-01-24T05:03:58;43.43;;;18.23;;
47539;SDS011;33280;52.152;21.052;2023-01-24T05:06:25;40.37;;;18.40;;
47539;SDS011;33280;52.152;21.052;2023-01-24T05:08:53;38.37;;;17.77;;
47539;SDS011;33280;52.152;21.052;2023-01-24T05:11:21;42.93;;;19.00;;
47539;SDS011;33280;52.152;21.052;2023-01-24T05:13:48;45.17;;;18.70;;
47539;SDS011;33280;52.152;21.052;2023-01-24T05:16:16;46.10;;;18.80;;
47539;SDS011;33280;52.152;21.052;2023-01-24T05:18:43;46.43;;;18.57;;
47539;SDS011;33280;52.152;21.052;2023-01-24T05:21:11;45.37;;;19.57;;
47539;SDS011;33280;52.152;21.052;2023-01-24T05:23:40;42.50;;;18.57;;
47539;SDS011;33280;52.152;21.052;2023-01-24T05:26:08;44.90;;;18.63;;
47539;SDS011;33280;52.152;21.052;2023-01-24T05:28:35;38.73;;;16.90;;
47539;SDS011;33280;52.152;21.052;2023-01-24T05:31:03;43.67;;;18.53;;
47539;SDS011;33280;52.152;21.052;2023-01-24T05:33:35;43.97;;;18.97;;
47539;SDS011;33280;52.152;21.052;2023-01-24T05:36:04;43.63;;;17.80;;
47539;SDS011;33280;52.152;21.052;2023-01-24T05:38:32;39.03;;;16.97;;
47539;SDS011;33280;52.152;21.052;2023-01-24T05:41:01;41.20;;;17.93;;
47539;SDS011;33280;52.152;21.052;2023-01-24T05:43:35;41.07;;;17.93;;
47539;SDS011;33280;52.152;21.052;2023-01-24T05:46:07;44.07;;;18.53;;
47539;SDS011;33280;52.152;21.052;2023-01-24T05:48:36;42.00;;;18.43;;
47539;SDS011;33280;52.152;21.052;2023-01-24T05:51:05;39.87;;;17.87;;
47539;SDS011;33280;52.152;21.052;2023-01-24T05:53:34;43.67;;;18.67;;
47539;SDS011;33280;52.152;21.052;2023-01-24T05:56:04;37.60;;;17.63;;
47539;SDS011;33280;52.152;21.052;2023-01-24T05:58:39;42.07;;;18.23;;
47539;SDS011;33280;52.152;21.052;2023-01-24T06:01:10;41.33;;;18.60;;
47539;SDS011;33280;52.152;21.052;2023-01-24T06:03:40;41.53;;;18.03;;
47539;SDS011;33280;52.152;21.052;2023-01-24T06:06:08;39.53;;;17.73;;
47539;SDS011;33280;52.152;21.052;2023-01-24T06:08:37;41.87;;;18.17;;
47539;SDS011;33280;52.152;21.052;2023-01-24T06:11:09;40.53;;;17.00;;
47539;SDS011;33280;52.152;21.052;2023-01-24T06:13:41;40.97;;;17.03;;
47539;SDS011;33280;52.152;21.052;2023-01-24T06:16:10;43.47;;;18.37;;
47539;SDS011;33280;52.152;21.052;2023-01-24T06:18:39;39.43;;;16.60;;
47539;SDS011;33280;52.152;21.052;2023-01-24T06:23:34;39.27;;;17.47;;
47539;SDS011;33280;52.152;21.052;2023-01-24T06:26:01;40.97;;;16.80;;
47539;SDS011;33280;52.152;21.052;2023-01-24T06:28:29;37.90;;;16.97;;
47539;SDS011;33280;52.152;21.052;2023-01-24T06:31:18;42.47;;;17.50;;
47539;SDS011;33280;52.152;21.052;2023-01-24T06:36:36;35.63;;;16.57;;
47539;SDS011;33280;52.152;21.052;2023-01-24T06:39:14;39.00;;;17.23;;
47539;SDS011;33280;52.152;21.052;2023-01-24T06:41:42;37.47;;;17.67;;
47539;SDS011;33280;52.152;21.052;2023-01-24T06:44:10;38.13;;;16.97;;
47539;SDS011;33280;52.152;21.052;2023-01-24T06:46:37;37.27;;;16.47;;
47539;SDS011;33280;52.152;21.052;2023-01-24T06:49:04;41.63;;;17.60;;
47539;SDS011;33280;52.152;21.052;2023-01-24T06:51:31;42.60;;;17.47;;
47539;SDS011;33280;52.152;21.052;2023-01-24T06:53:59;42.63;;;17.50;;
47539;SDS011;33280;52.152;21.052;2023-01-24T06:56:29;38.90;;;16.93;;
47539;SDS011;33280;52.152;21.052;2023-01-24T06:58:56;40.43;;;17.00;;
47539;SDS011;33280;52.152;21.052;2023-01-24T07:01:23;40.90;;;16.97;;
47539;SDS011;33280;52.152;21.052;2023-01-24T07:03:50;38.73;;;16.97;;
47539;SDS011;33280;52.152;21.052;2023-01-24T07:06:16;39.27;;;18.17;;
47539;SDS011;33280;52.152;21.052;2023-01-24T07:08:43;37.87;;;17.07;;
47539;SDS011;33280;52.152;21.052;2023-01-24T07:11:10;40.30;;;18.07;;
47539;SDS011;33280;52.152;21.052;2023-01-24T07:13:37;38.63;;;16.83;;
47539;SDS011;33280;52.152;21.052;2023-01-24T07:16:04;44.47;;;18.27;;
47539;SDS011;33280;52.152;21.052;2023-01-24T07:18:32;43.60;;;17.97;;
47539;SDS011;33280;52.152;21.052;2023-01-24T07:20:59;41.10;;;18.47;;
47539;SDS011;33280;52.152;21.052;2023-01-24T07:23:30;44.90;;;18.00;;
47539;SDS011;33280;52.152;21.052;2023-01-24T07:25:59;44.97;;;18.20;;
47539;SDS011;33280;52.152;21.052;2023-01-24T07:28:26;42.37;;;17.80;;
47539;SDS011;33280;52.152;21.052;2023-01-24T07:30:53;40.80;;;17.43;;
47539;SDS011;33280;52.152;21.052;2023-01-24T07:33:20;39.30;;;17.53;;
47539;SDS011;33280;52.152;21.052;2023-01-24T07:35:47;40.07;;;16.87;;
47539;SDS011;33280;52.152;21.052;2023-01-24T07:38:14;39.87;;;17.10;;
47539;SDS011;33280;52.152;21.052;2023-01-24T07:40:41;38.13;;;16.93;;
47539;SDS011;33280;52.152;21.052;2023-01-24T07:43:08;36.50;;;16.67;;
47539;SDS011;33280;52.152;21.052;2023-01-24T07:45:35;36.30;;;17.00;;
47539;SDS011;33280;52.152;21.052;2023-01-24T07:48:07;37.80;;;17.23;;
47539;SDS011;33280;52.152;21.052;2023-01-24T07:50:38;38.53;;;17.07;;
47539;SDS011;33280;52.152;21.052;2023-01-24T07:53:05;40.37;;;17.67;;
47539;SDS011;33280;52.152;21.052;2023-01-24T07:55:31;40.80;;;17.23;;
47539;SDS011;33280;52.152;21.052;2023-01-24T07:57:59;36.80;;;17.60;;
47539;SDS011;33280;52.152;21.052;2023-01-24T08:00:28;39.83;;;18.03;;
47539;SDS011;33280;52.152;21.052;2023-01-24T08:02:55;43.40;;;18.73;;
47539;SDS011;33280;52.152;21.052;2023-01-24T08:05:22;41.43;;;18.37;;
47539;SDS011;33280;52.152;21.052;2023-01-24T08:07:49;39.57;;;17.93;;
47539;SDS011;33280;52.152;21.052;2023-01-24T08:10:16;36.83;;;17.03;;
47539;SDS011;33280;52.152;21.052;2023-01-24T08:12:43;36.57;;;16.83;;
47539;SDS011;33280;52.152;21.052;2023-01-24T08:15:10;38.47;;;17.10;;
47539;SDS011;33280;52.152;21.052;2023-01-24T08:17:37;37.10;;;16.40;;
47539;SDS011;33280;52.152;21.052;2023-01-24T08:20:06;38.80;;;17.10;;
47539;SDS011;33280;52.152;21.052;2023-01-24T08:22:34;37.67;;;16.90;;
47539;SDS011;33280;52.152;21.052;2023-01-24T08:25:11;39.03;;;17.27;;
47539;SDS011;33280;52.152;21.052;2023-01-24T08:27:41;35.70;;;16.67;;
47539;SDS011;33280;52.152;21.052;2023-01-24T08:30:10;34.60;;;15.97;;
47539;SDS011;33280;52.152;21.052;2023-01-24T08:32:37;40.97;;;16.80;;
47539;SDS011;33280;52.152;21.052;2023-01-24T08:35:04;37.23;;;16.73;;
47539;SDS011;33280;52.152;21.052;2023-01-24T08:37:31;38.83;;;16.93;;
47539;SDS011;33280;52.152;21.052;2023-01-24T08:39:58;34.47;;;16.37;;
47539;SDS011;33280;52.152;21.052;2023-01-24T08:42:25;38.97;;;17.80;;
47539;SDS011;33280;52.152;21.052;2023-01-24T08:44:52;38.80;;;16.90;;
47539;SDS011;33280;52.152;21.052;2023-01-24T08:47:19;38.20;;;17.67;;
47539;SDS011;33280;52.152;21.052;2023-01-24T08:49:46;37.43;;;16.13;;
47539;SDS011;33280;52.152;21.052;2023-01-24T08:52:13;36.90;;;16.97;;
47539;SDS011;33280;52.152;21.052;2023-01-24T08:54:40;34.30;;;16.90;;
47539;SDS011;33280;52.152;21.052;2023-01-24T08:57:09;40.23;;;17.17;;
47539;SDS011;33280;52.152;21.052;2023-01-24T08:59:36;36.40;;;16.87;;
47539;SDS011;33280;52.152;21.052;2023-01-24T09:02:03;36.80;;;17.23;;
47539;SDS011;33280;52.152;21.052;2023-01-24T09:04:30;36.30;;;16.77;;
47539;SDS011;33280;52.152;21.052;2023-01-24T09:06:57;37.33;;;18.07;;
47539;SDS011;33280;52.152;21.052;2023-01-24T09:09:24;37.60;;;17.07;;
47539;SDS011;33280;52.152;21.052;2023-01-24T09:11:52;36.73;;;17.53;;
47539;SDS011;33280;52.152;21.052;2023-01-24T09:14:19;35.53;;;16.10;;
47539;SDS011;33280;52.152;21.052;2023-01-24T09:16:46;37.47;;;17.00;;
47539;SDS011;33280;52.152;21.052;2023-01-24T09:19:13;37.90;;;16.00;;
47539;SDS011;33280;52.152;21.052;2023-01-24T09:21:40;40.23;;;17.27;;
47539;SDS011;33280;52.152;21.052;2023-01-24T09:24:07;36.30;;;17.00;;
47539;SDS011;33280;52.152;21.052;2023-01-24T09:26:34;35.97;;;16.83;;
47539;SDS011;33280;52.152;21.052;2023-01-24T09:29:01;39.33;;;17.60;;
47539;SDS011;33280;52.152;21.052;2023-01-24T09:31:28;35.60;;;17.17;;
47539;SDS011;33280;52.152;21.052;2023-01-24T09:33:55;35.93;;;16.87;;
47539;SDS011;33280;52.152;21.052;2023-01-24T09:36:25;40.70;;;18.07;;
47539;SDS011;33280;52.152;21.052;2023-01-24T09:38:52;38.77;;;18.33;;
47539;SDS011;33280;52.152;21.052;2023-01-24T09:45:20;43.53;;;18.23;;
47539;SDS011;33280;52.152;21.052;2023-01-24T09:47:36;38.13;;;18.27;;
47539;SDS011;33280;52.152;21.052;2023-01-24T09:50:14;41.37;;;19.47;;
47539;SDS011;33280;52.152;21.052;2023-01-24T09:52:44;41.40;;;18.80;;
47539;SDS011;33280;52.152;21.052;2023-01-24T10:00:31;39.83;;;18.67;;
47539;SDS011;33280;52.152;21.052;2023-01-24T10:03:02;35.67;;;17.07;;
47539;SDS011;33280;52.152;21.052;2023-01-24T10:05:38;36.80;;;17.07;;
47539;SDS011;33280;52.152;21.052;2023-01-24T10:08:14;40.63;;;18.10;;
47539;SDS011;33280;52.152;21.052;2023-01-24T10:10:51;39.80;;;18.40;;
47539;SDS011;33280;52.152;21.052;2023-01-24T10:16:48;41.97;;;18.67;;
47539;SDS011;33280;52.152;21.052;2023-01-24T10:20:02;43.10;;;19.37;;
47539;SDS011;33280;52.152;21.052;2023-01-24T10:23:02;45.27;;;20.10;;
47539;SDS011;33280;52.152;21.052;2023-01-24T10:28:26;43.97;;;20.17;;
47539;SDS011;33280;52.152;21.052;2023-01-24T10:31:07;49.00;;;22.70;;
47539;SDS011;33280;52.152;21.052;2023-01-24T10:33:44;49.70;;;23.20;;
47539;SDS011;33280;52.152;21.052;2023-01-24T10:36:26;55.40;;;24.23;;
47539;SDS011;33280;52.152;21.052;2023-01-24T10:39:10;53.03;;;23.53;;
47539;SDS011;33280;52.152;21.052;2023-01-24T10:41:38;52.57;;;23.40;;
47539;SDS011;33280;52.152;21.052;2023-01-24T10:44:09;48.53;;;22.50;;
47539;SDS011;33280;52.152;21.052;2023-01-24T10:49:43;48.80;;;21.17;;
47539;SDS011;33280;52.152;21.052;2023-01-24T10:52:19;48.73;;;21.47;;
47539;SDS011;33280;52.152;21.052;2023-01-24T10:54:51;48.47;;;20.10;;
47539;SDS011;33280;52.152;21.052;2023-01-24T10:57:23;45.50;;;20.67;;
47539;SDS011;33280;52.152;21.052;2023-01-24T11:02:57;43.90;;;20.20;;
47539;SDS011;33280;52.152;21.052;2023-01-24T11:05:49;43.87;;;20.50;;
47539;SDS011;33280;52.152;21.052;2023-01-24T11:08:18;46.37;;;20.53;;
47539;SDS011;33280;52.152;21.052;2023-01-24T11:10:54;43.80;;;21.47;;
47539;SDS011;33280;52.152;21.052;2023-01-24T11:13:26;46.40;;;21.27;;
47539;SDS011;33280;52.152;21.052;2023-01-24T11:15:58;47.47;;;22.10;;
47539;SDS011;33280;52.152;21.052;2023-01-24T11:18:28;41.80;;;20.57;;
47539;SDS011;33280;52.152;21.052;2023-01-24T11:21:06;45.40;;;21.43;;
47539;SDS011;33280;52.152;21.052;2023-01-24T11:23:35;48.07;;;21.47;;
47539;SDS011;33280;52.152;21.052;2023-01-24T11:26:03;43.30;;;20.50;;
47539;SDS011;33280;52.152;21.052;2023-01-24T11:28:32;41.40;;;19.93;;
47539;SDS011;33280;52.152;21.052;2023-01-24T11:31:05;43.50;;;19.83;;
47539;SDS011;33280;52.152;21.052;2023-01-24T14:13:43;47.40;;;20.23;;
47539;SDS011;33280;52.152;21.052;2023-01-24T14:24:37;54.20;;;21.37;;
47539;SDS011;33280;52.152;21.052;2023-01-24T14:27:29;50.53;;;20.57;;
47539;SDS011;33280;52.152;21.052;2023-01-24T14:37:46;43.37;;;19.03;;
47539;SDS011;33280;52.152;21.052;2023-01-24T14:42:48;41.30;;;19.17;;
47539;SDS011;33280;52.152;21.052;2023-01-24T14:45:19;44.67;;;19.40;;
47539;SDS011;33280;52.152;21.052;2023-01-24T14:47:49;50.87;;;19.27;;
47539;SDS011;33280;52.152;21.052;2023-01-24T14:50:21;41.77;;;18.67;;
47539;SDS011;33280;52.152;21.052;2023-01-24T14:52:58;46.17;;;20.33;;
47539;SDS011;33280;52.152;21.052;2023-01-24T14:55:45;49.27;;;20.33;;
47539;SDS011;33280;52.152;21.052;2023-01-24T14:58:23;45.83;;;19.67;;
47539;SDS011;33280;52.152;21.052;2023-01-24T15:00:56;45.40;;;20.23;;
47539;SDS011;33280;52.152;21.052;2023-01-24T15:03:26;50.83;;;22.07;;
47539;SDS011;33280;52.152;21.052;2023-01-24T15:08:29;49.70;;;21.13;;
47539;SDS011;33280;52.152;21.052;2023-01-24T15:11:01;47.77;;;21.83;;
47539;SDS011;33280;52.152;21.052;2023-01-24T15:13:41;49.00;;;20.80;;
47539;SDS011;33280;52.152;21.052;2023-01-24T15:16:18;47.40;;;20.47;;
47539;SDS011;33280;52.152;21.052;2023-01-24T15:18:48;47.23;;;20.63;;
47539;SDS011;33280;52.152;21.052;2023-01-24T15:21:33;49.60;;;20.87;;
47539;SDS011;33280;52.152;21.052;2023-01-24T15:24:12;43.77;;;19.77;;
47539;SDS011;33280;52.152;21.052;2023-01-24T15:26:48;48.67;;;20.37;;
47539;SDS011;33280;52.152;21.052;2023-01-24T15:32:26;44.23;;;19.43;;
47539;SDS011;33280;52.152;21.052;2023-01-24T15:40:46;43.17;;;19.03;;
47539;SDS011;33280;52.152;21.052;2023-01-24T15:43:17;50.03;;;20.33;;
47539;SDS011;33280;52.152;21.052;2023-01-24T15:46:07;49.73;;;19.70;;
47539;SDS011;33280;52.152;21.052;2023-01-24T15:49:22;45.20;;;20.53;;
47539;SDS011;33280;52.152;21.052;2023-01-24T15:54:41;49.77;;;21.13;;
47539;SDS011;33280;52.152;21.052;2023-01-24T15:57:17;47.93;;;19.83;;
47539;SDS011;33280;52.152;21.052;2023-01-24T15:59:46;49.27;;;20.93;;
47539;SDS011;33280;52.152;21.052;2023-01-24T16:02:16;44.80;;;20.17;;
47539;SDS011;33280;52.152;21.052;2023-01-24T16:04:43;46.53;;;20.53;;
47539;SDS011;33280;52.152;21.052;2023-01-24T16:07:11;50.83;;;20.97;;
47539;SDS011;33280;52.152;21.052;2023-01-24T16:09:38;51.07;;;21.53;;
47539;SDS011;33280;52.152;21.052;2023-01-24T16:12:05;48.73;;;21.30;;
47539;SDS011;33280;52.152;21.052;2023-01-24T16:14:35;47.00;;;20.07;;
47539;SDS011;33280;52.152;21.052;2023-01-24T16:17:02;48.63;;;20.73;;
47539;SDS011;33280;52.152;21.052;2023-01-24T16:19:29;50.23;;;19.90;;
47539;SDS011;33280;52.152;21.052;2023-01-24T16:21:56;45.73;;;21.00;;
47539;SDS011;33280;52.152;21.052;2023-01-24T16:24:23;50.27;;;21.30;;
47539;SDS011;33280;52.152;21.052;2023-01-24T16:26:51;46.73;;;20.33;;
47539;SDS011;33280;52.152;21.052;2023-01-24T16:29:21;45.07;;;20.40;;
47539;SDS011;33280;52.152;21.052;2023-01-24T16:31:50;52.00;;;22.43;;
47539;SDS011;33280;52.152;21.052;2023-01-24T16:34:17;47.10;;;20.43;;
47539;SDS011;33280;52.152;21.052;2023-01-24T16:36:45;46.33;;;20.07;;
47539;SDS011;33280;52.152;21.052;2023-01-24T16:39:16;51.47;;;21.20;;
47539;SDS011;33280;52.152;21.052;2023-01-24T16:41:45;49.33;;;21.17;;
47539;SDS011;33280;52.152;21.052;2023-01-24T16:44:13;49.43;;;20.93;;
47539;SDS011;33280;52.152;21.052;2023-01-24T16:46:40;48.23;;;21.57;;
47539;SDS011;33280;52.152;21.052;2023-01-24T16:49:14;53.47;;;21.27;;
47539;SDS011;33280;52.152;21.052;2023-01-24T16:51:42;49.00;;;21.30;;
47539;SDS011;33280;52.152;21.052;2023-01-24T16:54:09;49.10;;;20.43;;
47539;SDS011;33280;52.152;21.052;2023-01-24T16:56:36;49.03;;;21.20;;
47539;SDS011;33280;52.152;21.052;2023-01-24T16:59:03;50.13;;;21.73;;
47539;SDS011;33280;52.152;21.052;2023-01-24T17:01:30;51.77;;;20.73;;
47539;SDS011;33280;52.152;21.052;2023-01-24T17:03:57;43.97;;;20.40;;
47539;SDS011;33280;52.152;21.052;2023-01-24T17:06:24;48.90;;;21.00;;
47539;SDS011;33280;52.152;21.052;2023-01-24T17:08:51;55.10;;;21.10;;
47539;SDS011;33280;52.152;21.052;2023-01-24T17:11:18;51.77;;;21.07;;
47539;SDS011;33280;52.152;21.052;2023-01-24T17:13:46;48.70;;;20.77;;
47539;SDS011;33280;52.152;21.052;2023-01-24T17:16:13;45.00;;;19.60;;
47539;SDS011;33280;52.152;21.052;2023-01-24T17:18:40;44.90;;;19.50;;
47539;SDS011;33280;52.152;21.052;2023-01-24T17:21:08;41.13;;;18.67;;
47539;SDS011;33280;52.152;21.052;2023-01-24T17:23:37;40.90;;;18.00;;
47539;SDS011;33280;52.152;21.052;2023-01-24T17:26:09;44.53;;;18.90;;
47539;SDS011;33280;52.152;21.052;2023-01-24T17:28:41;39.53;;;18.00;;
47539;SDS011;33280;52.152;21.052;2023-01-24T17:31:10;39.33;;;17.87;;
47539;SDS011;33280;52.152;21.052;2023-01-24T17:33:42;42.07;;;18.57;;
47539;SDS011;33280;52.152;21.052;2023-01-24T17:36:10;37.20;;;17.33;;
47539;SDS011;33280;52.152;21.052;2023-01-24T17:38:42;39.17;;;17.03;;
47539;SDS011;33280;52.152;21.052;2023-01-24T17:41:11;37.37;;;16.80;;
47539;SDS011;33280;52.152;21.052;2023-01-24T17:43:42;38.73;;;18.13;;
47539;SDS011;33280;52.152;21.052;2023-01-24T17:46:18;35.77;;;16.87;;
47539;SDS011;33280;52.152;21.052;2023-01-24T17:48:45;36.97;;;18.10;;
47539;SDS011;33280;52.152;21.052;2023-01-24T17:51:16;38.17;;;17.47;;
47539;SDS011;33280;52.152;21.052;2023-01-24T17:53:44;37.47;;;18.20;;
47539;SDS011;33280;52.152;21.052;2023-01-24T17:56:11;39.10;;;18.03;;
47539;SDS011;33280;52.152;21.052;2023-01-24T17:58:39;41.47;;;18.97;;
47539;SDS011;33280;52.152;21.052;2023-01-24T18:01:06;39.97;;;18.27;;
47539;SDS011;33280;52.152;21.052;2023-01-24T18:03:34;39.93;;;17.80;;
47539;SDS011;33280;52.152;21.052;2023-01-24T18:06:04;37.23;;;18.30;;
47539;SDS011;33280;52.152;21.052;2023-01-24T18:08:31;37.57;;;17.83;;
47539;SDS011;33280;52.152;21.052;2023-01-24T18:11:05;35.37;;;16.80;;
47539;SDS011;33280;52.152;21.052;2023-01-24T18:13:34;35.67;;;16.37;;
47539;SDS011;33280;52.152;21.052;2023-01-24T18:16:02;31.37;;;16.07;;
47539;SDS011;33280;52.152;21.052;2023-01-24T18:18:31;35.60;;;16.20;;
47539;SDS011;33280;52.152;21.052;2023-01-24T18:20:59;36.67;;;17.30;;
47539;SDS011;33280;52.152;21.052;2023-01-24T18:23:25;33.77;;;16.03;;